Time;durP1;ratioP1;P1;durP2;ratioP2;P2;SDS_P1;SDS_P2;PMS_P1;PMS_P2;Temp;Humidity;BMP_temperature;BMP_pressure;BME280_temperature;BME280_humidity;BME280_pressure;Samples;Min_cycle;Max_cycle;Signal;HPM_P1;HPM_P2
2022/05/06 00:03:00;;;;;;;1.90;1.42;;;;;;;14.07;78.72;99099.53;5090108;28;20070;-60
2022/05/06 00:05:44;;;;;;;2.75;1.90;;;;;;;14.10;77.92;99101.91;5091452;28;20471;-60
2022/05/06 00:08:29;;;;;;;2.10;1.63;;;;;;;14.18;76.78;99105.75;5090292;28;20036;-61
2022/05/06 00:11:14;;;;;;;5.50;1.90;;;;;;;14.24;76.32;99106.13;5090232;28;20036;-60
2022/05/06 00:13:59;;;;;;;2.42;1.80;;;;;;;14.27;75.33;99108.53;5090146;28;20050;-60
2022/05/06 00:16:45;;;;;;;2.80;1.85;;;;;;;14.36;75.69;99108.75;5091204;28;20048;-60
2022/05/06 00:19:30;;;;;;;3.78;1.95;;;;;;;14.35;74.91;99107.06;5091220;28;20047;-60
2022/05/06 00:22:14;;;;;;;3.53;1.85;;;;;;;14.34;74.96;99108.88;5090210;28;20040;-60
2022/05/06 00:24:59;;;;;;;3.00;1.80;;;;;;;14.30;76.04;99104.78;5094489;28;20044;-60
2022/05/06 00:27:44;;;;;;;2.33;1.70;;;;;;;14.36;75.33;99114.84;5094984;28;20036;-61
2022/05/06 00:30:29;;;;;;;2.67;1.80;;;;;;;14.25;76.09;99106.94;5093984;28;20040;-60
2022/05/06 00:33:14;;;;;;;2.30;1.70;;;;;;;14.23;75.73;99106.25;5093653;28;20047;-60
2022/05/06 00:36:01;;;;;;;3.72;2.15;;;;;;;14.29;74.46;99117.16;5093933;28;20036;-59
2022/05/06 00:38:46;;;;;;;3.03;1.98;;;;;;;14.32;74.48;99112.56;5079555;28;20044;-60
2022/05/06 00:41:35;;;;;;;2.53;2.00;;;;;;;14.29;74.85;99106.59;5093724;28;20441;-60
2022/05/06 00:44:20;;;;;;;3.28;1.65;;;;;;;14.29;74.80;99111.03;5094781;28;20051;-61
2022/05/06 00:47:05;;;;;;;3.90;2.28;;;;;;;14.34;74.99;99108.03;5087009;28;20219;-60
2022/05/06 00:49:52;;;;;;;2.45;1.92;;;;;;;14.26;76.29;99117.38;5094312;28;20126;-60
2022/05/06 00:52:36;;;;;;;3.83;2.30;;;;;;;14.30;76.76;99110.06;5093283;28;20070;-61
2022/05/06 00:55:23;;;;;;;2.90;2.20;;;;;;;14.27;77.01;99119.06;5105465;28;20055;-61
2022/05/06 00:58:09;;;;;;;6.28;2.88;;;;;;;14.23;77.56;99116.78;5114142;28;20047;-60
2022/05/06 01:00:53;;;;;;;3.80;2.80;;;;;;;14.20;78.27;99123.13;5114579;28;20039;-61
2022/05/06 01:03:38;;;;;;;3.15;2.10;;;;;;;14.40;78.47;99120.72;5098913;28;20139;-60
2022/05/06 01:06:23;;;;;;;3.88;2.78;;;;;;;14.22;78.48;99115.09;5113856;28;20047;-61
2022/05/06 01:09:16;;;;;;;3.50;2.63;;;;;;;14.02;79.65;99120.13;5114508;28;20039;-61
2022/05/06 01:12:02;;;;;;;3.22;2.70;;;;;;;13.93;79.78;99116.41;5099272;28;20047;-61
2022/05/06 01:14:47;;;;;;;5.18;3.00;;;;;;;13.92;79.69;99118.19;5113649;28;20478;-60
2022/05/06 01:17:40;;;;;;;3.92;3.00;;;;;;;13.92;80.39;99117.38;5114453;28;20510;-61
2022/05/06 01:20:27;;;;;;;5.03;3.25;;;;;;;13.83;80.93;99118.06;5112915;28;20119;-61
2022/05/06 01:23:11;;;;;;;5.35;3.25;;;;;;;13.77;81.15;99114.94;5112919;28;20119;-59
2022/05/06 01:25:56;;;;;;;4.45;3.35;;;;;;;13.81;80.68;99104.22;5112682;28;20050;-59
2022/05/06 01:28:42;;;;;;;5.63;3.50;;;;;;;13.75;81.12;99106.34;5113946;28;20571;-60
2022/05/06 01:31:27;;;;;;;5.30;3.25;;;;;;;13.76;81.14;99102.75;5109165;28;20071;-59
2022/05/06 01:34:15;;;;;;;4.45;2.83;;;;;;;13.84;81.20;99110.06;5070820;28;20082;-60
2022/05/06 01:37:02;;;;;;;5.80;3.22;;;;;;;13.79;81.00;99113.03;5085952;28;20075;-61
2022/05/06 01:39:52;;;;;;;4.72;3.45;;;;;;;13.76;81.14;99117.69;5086571;28;20040;-61
2022/05/06 01:42:39;;;;;;;4.30;3.60;;;;;;;13.77;80.67;99107.03;5086411;28;20472;-60
2022/05/06 01:45:29;;;;;;;3.83;2.88;;;;;;;13.77;80.41;99103.59;5072931;28;20047;-60
2022/05/06 01:48:16;;;;;;;5.00;3.22;;;;;;;13.77;80.08;99108.88;5086474;28;20032;-60
2022/05/06 01:51:07;;;;;;;4.72;2.80;;;;;;;13.76;80.11;99112.44;5086496;28;20067;-61
2022/05/06 01:53:55;;;;;;;3.55;2.58;;;;;;;13.78;79.33;99100.00;5088656;28;20048;-60
2022/05/06 01:56:41;;;;;;;4.20;2.92;;;;;;;13.78;79.25;99105.25;5092667;28;20040;-59
2022/05/06 01:59:26;;;;;;;3.67;2.83;;;;;;;13.80;79.58;99106.00;5092727;28;20039;-60
2022/05/06 02:02:21;;;;;;;3.70;2.33;;;;;;;13.84;78.52;99101.34;5092524;28;20112;-60
2022/05/06 02:05:23;;;;;;;3.38;2.45;;;;;;;13.92;77.93;99109.47;5092320;28;20585;-60
2022/05/06 02:08:11;;;;;;;3.53;2.53;;;;;;;13.96;77.49;99107.44;5092118;28;20040;-60
2022/05/06 02:10:57;;;;;;;2.95;2.28;;;;;;;13.97;78.08;99114.38;5077658;28;20368;-59
2022/05/06 02:13:42;;;;;;;3.35;2.30;;;;;;;13.97;77.39;99112.56;5092582;28;20111;-61
2022/05/06 02:16:51;;;;;;;2.60;2.00;;;;;;;13.96;77.22;99103.00;5092039;28;20126;-61
2022/05/06 02:20:01;;;;;;;3.47;2.38;;;;;;;13.92;77.45;99104.22;5092039;28;20043;-60
2022/05/06 02:23:13;;;;;;;2.33;1.88;;;;;;;13.91;77.46;99113.91;5092179;28;20047;-59
2022/05/06 02:26:09;;;;;;;4.00;2.22;;;;;;;13.91;77.57;99105.16;5092272;28;20044;-60
2022/05/06 02:29:08;;;;;;;3.65;2.33;;;;;;;14.00;76.63;99108.88;5106432;28;20044;-60
2022/05/06 02:35:00;;;;;;;2.58;2.08;;;;;;;13.93;77.06;99124.31;5091389;28;20063;-60
2022/05/06 02:37:45;;;;;;;3.10;2.35;;;;;;;13.99;76.75;99112.44;5091518;28;20042;-61
2022/05/06 02:40:31;;;;;;;3.22;2.13;;;;;;;14.01;76.78;99111.41;5091103;28;20089;-61
2022/05/06 02:43:17;;;;;;;4.88;2.60;;;;;;;13.99;77.03;99112.44;5063601;28;20477;-61
2022/05/06 02:46:06;;;;;;;4.03;2.45;;;;;;;13.99;76.91;99110.66;5091584;28;20047;-61
2022/05/06 02:48:50;;;;;;;5.05;2.58;;;;;;;13.95;77.16;99101.34;5091062;28;20044;-61
2022/05/06 02:51:39;;;;;;;3.63;2.42;;;;;;;13.94;77.61;99104.09;5076996;28;20500;-61
2022/05/06 02:54:25;;;;;;;4.10;2.60;;;;;;;13.97;78.09;99099.41;5097229;28;20110;-61
2022/05/06 02:57:13;;;;;;;4.85;2.60;;;;;;;13.95;77.57;99103.97;5111393;28;20062;-61
2022/05/06 03:00:00;;;;;;;3.55;2.83;;;;;;;13.97;77.62;99109.94;5112357;28;20484;-61
2022/05/06 03:02:47;;;;;;;5.60;2.70;;;;;;;13.93;78.20;99113.78;5104261;28;20035;-60
2022/05/06 03:05:32;;;;;;;4.80;2.70;;;;;;;13.95;78.21;99114.50;5111677;28;20070;-60
2022/05/06 03:08:19;;;;;;;5.68;3.13;;;;;;;13.95;78.23;99111.88;5105101;28;20584;-61
2022/05/06 03:11:06;;;;;;;2.83;2.42;;;;;;;13.97;78.72;99109.13;5088738;28;20066;-61
2022/05/06 03:13:57;;;;;;;;;;;;;;;13.94;78.24;99112.81;5080166;28;20040;-60
2022/05/06 03:16:47;;;;;;;3.72;2.55;;;;;;;13.98;78.75;99105.53;5108653;28;20342;-61
2022/05/06 03:19:32;;;;;;;5.43;3.05;;;;;;;13.97;78.47;99109.13;5102178;28;20040;-60
2022/05/06 03:22:17;;;;;;;5.45;3.08;;;;;;;14.00;78.39;99107.06;5091125;28;20083;-60
2022/05/06 03:25:02;;;;;;;5.30;3.38;;;;;;;13.90;78.98;99104.34;5092610;28;20043;-60
2022/05/06 03:28:07;;;;;;;4.68;3.47;;;;;;;13.93;79.06;99105.88;5090795;28;20391;-61
2022/05/06 03:30:52;;;;;;;5.15;3.08;;;;;;;14.05;78.21;99112.00;5111420;28;20104;-61
2022/05/06 03:33:49;;;;;;;5.68;2.78;;;;;;;14.01;78.62;99107.91;5110914;28;20521;-60
2022/05/06 03:36:41;;;;;;;4.40;3.08;;;;;;;13.98;78.81;99106.38;5111173;28;20081;-60
2022/05/06 03:39:29;;;;;;;4.05;3.10;;;;;;;13.97;79.48;99104.66;5111080;28;20397;-60
2022/05/06 03:42:19;;;;;;;8.38;3.97;;;;;;;13.92;79.40;99118.19;5110712;28;20600;-60
2022/05/06 03:45:07;;;;;;;6.72;3.97;;;;;;;13.95;79.35;99116.28;5096747;28;20461;-60
2022/05/06 03:47:54;;;;;;;4.05;3.38;;;;;;;13.94;79.70;99112.81;5111009;28;20044;-61
2022/05/06 03:53:52;;;;;;;5.35;3.47;;;;;;;14.00;79.16;99104.44;5084263;28;20043;-61
2022/05/06 03:56:36;;;;;;;4.70;3.33;;;;;;;14.09;78.82;99112.56;5091608;28;20131;-61
2022/05/06 03:59:25;;;;;;;5.43;3.53;;;;;;;14.10;78.92;99114.28;5093085;28;20051;-60
2022/05/06 04:02:18;;;;;;;3.78;2.83;;;;;;;14.19;78.35;99121.44;5094260;28;20165;-60
2022/05/06 04:05:05;;;;;;;4.30;3.10;;;;;;;14.19;78.23;99123.25;5080111;28;20040;-60
2022/05/06 04:07:50;;;;;;;5.00;2.83;;;;;;;14.22;77.92;99128.25;5094244;28;20040;-60
2022/05/06 04:10:35;;;;;;;8.00;4.22;;;;;;;14.20;77.69;99120.47;5091228;28;20032;-59
2022/05/06 04:13:19;;;;;;;4.88;3.55;;;;;;;14.13;78.22;99120.13;5091939;28;20063;-59
2022/05/06 04:16:07;;;;;;;5.00;3.28;;;;;;;14.35;76.95;99125.50;5078592;28;20105;-59
2022/05/06 04:18:53;;;;;;;5.00;3.25;;;;;;;14.23;77.68;99119.44;5093397;28;20040;-59
2022/05/06 04:24:48;;;;;;;3.67;2.75;;;;;;;14.29;77.65;99146.13;5094467;28;20065;-59
2022/05/06 04:27:35;;;;;;;4.00;3.05;;;;;;;14.25;77.86;99135.94;5066130;28;20048;-59
2022/05/06 04:30:20;;;;;;;4.90;3.45;;;;;;;14.27;77.95;99134.03;5079862;28;20074;-59
2022/05/06 04:33:26;;;;;;;4.80;3.30;;;;;;;14.19;78.40;99142.53;5092954;28;20031;-59
2022/05/06 04:36:11;;;;;;;4.43;3.45;;;;;;;14.23;77.93;99146.59;5094636;28;20084;-56
2022/05/06 04:39:00;;;;;;;6.35;2.92;;;;;;;14.62;79.04;99143.56;5079707;28;20036;-58
2022/05/06 04:41:48;;;;;;;4.95;2.90;;;;;;;15.12;76.48;99142.28;5074847;28;20036;-61
2022/05/06 04:44:35;;;;;;;5.03;3.45;;;;;;;15.00;76.06;99146.75;5092964;28;20117;-61
2022/05/06 04:47:20;;;;;;;5.07;3.17;;;;;;;14.84;75.68;99146.31;5092675;28;20044;-59
2022/05/06 04:50:06;;;;;;;7.25;4.00;;;;;;;14.82;75.44;99142.97;5092509;28;20037;-59
2022/05/06 04:52:52;;;;;;;8.02;3.80;;;;;;;15.02;73.90;99158.03;5078497;28;20128;-60
2022/05/06 04:55:43;;;;;;;9.95;4.60;;;;;;;15.08;73.66;99153.22;5078078;28;20032;-64
2022/05/06 04:58:31;;;;;;;5.70;3.80;;;;;;;14.92;74.46;99161.53;5090656;28;20087;-59
2022/05/06 05:01:17;;;;;;;5.40;3.83;;;;;;;14.88;74.40;99156.50;5091761;28;20040;-65
2022/05/06 05:04:06;;;;;;;4.43;3.28;;;;;;;15.06;74.13;99160.41;5104291;28;20040;-62
2022/05/06 05:06:54;;;;;;;6.63;3.97;;;;;;;14.84;74.34;99160.34;5090994;28;20036;-61
2022/05/06 05:09:40;;;;;;;5.13;3.55;;;;;;;14.86;74.45;99163.72;5076621;28;20378;-60
2022/05/06 05:12:28;;;;;;;6.85;4.50;;;;;;;15.02;73.22;99168.59;5073862;28;20036;-59
2022/05/06 05:15:15;;;;;;;7.57;4.20;;;;;;;14.98;75.03;99164.50;5076509;28;20103;-60
2022/05/06 05:18:00;;;;;;;5.40;4.25;;;;;;;15.01;73.64;99163.44;5080151;28;20036;-60
2022/05/06 05:20:45;;;;;;;6.78;4.07;;;;;;;14.89;74.08;99159.97;5097087;28;20046;-61
2022/05/06 05:23:31;;;;;;;8.45;4.15;;;;;;;14.74;74.00;99164.66;5092688;28;20036;-62
2022/05/06 05:26:17;;;;;;;5.47;3.90;;;;;;;14.69;74.32;99154.47;5086996;28;20432;-60
2022/05/06 05:29:05;;;;;;;7.35;4.50;;;;;;;14.72;74.21;99167.41;5076341;28;20043;-61
2022/05/06 05:31:51;;;;;;;5.10;3.97;;;;;;;14.97;73.43;99165.47;5091633;28;20085;-59
2022/05/06 05:34:36;;;;;;;8.98;4.45;;;;;;;14.84;73.62;99168.25;5091780;28;20032;-60
2022/05/06 05:37:22;;;;;;;6.75;4.60;;;;;;;14.87;73.29;99175.94;5077964;28;20051;-59
2022/05/06 05:40:10;;;;;;;5.13;4.18;;;;;;;14.82;73.47;99178.09;5092616;28;20047;-61
2022/05/06 05:42:58;;;;;;;9.77;4.55;;;;;;;14.86;73.58;99181.31;5092427;28;20040;-60
2022/05/06 05:48:51;;;;;;;7.32;4.55;;;;;;;14.85;73.20;99174.38;5106282;28;20063;-60
2022/05/06 05:51:36;;;;;;;7.50;4.65;;;;;;;14.89;72.57;99170.53;5092237;28;20051;-58
2022/05/06 05:54:22;;;;;;;5.80;3.78;;;;;;;14.89;73.67;99170.53;5063831;28;20040;-59
2022/05/06 05:57:08;;;;;;;6.20;4.18;;;;;;;14.82;73.76;99180.72;5091554;28;20051;-59
2022/05/06 05:59:54;;;;;;;13.70;4.50;;;;;;;14.97;73.29;99177.81;5064400;28;20048;-61
2022/05/06 06:02:41;;;;;;;10.13;4.97;;;;;;;14.82;72.88;99182.53;5073897;28;20047;-59
2022/05/06 06:05:29;;;;;;;6.20;4.30;;;;;;;15.09;74.77;99182.13;5078337;28;20040;-60
2022/05/06 06:08:14;;;;;;;6.38;4.30;;;;;;;15.06;72.17;99184.16;5090175;28;20475;-60
2022/05/06 06:11:01;;;;;;;7.70;4.90;;;;;;;14.94;72.68;99188.63;5089150;28;20247;-61
2022/05/06 06:13:51;;;;;;;8.10;5.13;;;;;;;15.05;72.90;99191.22;5093012;28;20039;-60
2022/05/06 06:16:39;;;;;;;5.95;4.30;;;;;;;15.17;72.31;99199.13;5089076;28;20093;-60
2022/05/06 06:19:25;;;;;;;7.25;4.63;;;;;;;15.07;72.88;99210.41;5085547;28;20052;-60
2022/05/06 06:22:10;;;;;;;4.63;2.80;;;;;;;15.70;74.25;99202.75;5090743;28;20044;-62
2022/05/06 06:25:09;;;;;;;4.63;3.90;;;;;;;15.31;72.27;99206.75;5091190;28;20047;-58
2022/05/06 06:27:55;;;;;;;6.03;3.83;;;;;;;15.49;71.59;99212.31;5105812;28;20071;-59
2022/05/06 06:30:40;;;;;;;5.22;4.22;;;;;;;15.30;71.32;99213.00;5105918;28;20067;-59
2022/05/06 06:33:25;;;;;;;5.13;4.00;;;;;;;15.20;72.10;99197.06;5090928;28;20086;-59
2022/05/06 06:36:13;;;;;;;7.30;3.92;;;;;;;15.44;72.58;99201.28;5091297;28;20033;-60
2022/05/06 06:38:58;;;;;;;7.28;4.32;;;;;;;15.55;70.56;99202.22;5091334;28;20078;-61
2022/05/06 06:41:43;;;;;;;9.45;3.97;;;;;;;15.52;70.73;99205.97;5075900;28;20043;-60
2022/05/06 06:44:28;;;;;;;5.70;3.90;;;;;;;15.36;71.50;99212.50;5092317;28;20040;-59
2022/05/06 06:47:45;;;;;;;7.78;2.85;;;;;;;15.72;74.79;99214.88;5074367;28;20044;-59
2022/05/06 06:50:39;;;;;;;4.88;3.83;;;;;;;15.39;71.03;99216.69;5090786;28;20454;-59
2022/05/06 06:53:42;;;;;;;6.32;3.85;;;;;;;15.23;71.69;99220.56;5092071;28;20040;-60
2022/05/06 06:56:27;;;;;;;7.65;4.32;;;;;;;15.25;71.46;99231.84;5092264;28;20085;-58
2022/05/06 06:59:12;;;;;;;6.88;4.05;;;;;;;15.25;70.71;99236.28;5092351;28;20117;-59
2022/05/06 07:01:57;;;;;;;6.63;4.07;;;;;;;15.42;70.20;99224.38;5091796;28;20104;-59
2022/05/06 07:04:42;;;;;;;5.45;3.85;;;;;;;15.46;71.22;99217.84;5091511;28;20093;-61
2022/05/06 07:13:33;;;;;;;5.25;4.03;;;;;;;15.73;69.17;99232.38;5092451;28;20040;-59
2022/05/06 07:16:18;;;;;;;7.47;3.90;;;;;;;15.84;69.45;99228.00;5091165;28;20032;-60
2022/05/06 07:19:03;;;;;;;9.38;4.35;;;;;;;16.04;69.03;99230.81;5091950;28;20066;-60
2022/05/06 07:21:51;;;;;;;4.78;3.65;;;;;;;16.11;68.83;99222.25;5097344;28;20048;-61
2022/05/06 07:24:35;;;;;;;5.25;3.67;;;;;;;16.17;68.02;99230.63;5092814;28;20052;-59
2022/05/06 07:27:22;;;;;;;7.35;3.75;;;;;;;16.16;68.19;99235.06;5092700;28;20036;-59
2022/05/06 07:30:08;;;;;;;5.55;4.10;;;;;;;16.28;67.46;99229.69;5091543;28;20040;-60
2022/05/06 07:32:53;;;;;;;5.95;3.70;;;;;;;16.19;67.91;99232.16;5091844;28;20067;-60
2022/05/06 07:35:38;;;;;;;4.68;3.60;;;;;;;16.45;68.20;99230.91;5095012;28;20040;-60
2022/05/06 07:38:23;;;;;;;6.47;4.38;;;;;;;16.47;67.35;99229.81;5095018;28;20129;-60
2022/05/06 07:41:07;;;;;;;5.28;3.97;;;;;;;16.32;67.35;99226.66;5095684;28;20051;-60
2022/05/06 07:43:52;;;;;;;6.05;4.25;;;;;;;16.66;66.63;99230.03;5095734;28;20125;-60
2022/05/06 07:46:38;;;;;;;7.97;4.40;;;;;;;16.57;67.32;99227.19;5095862;28;20550;-60
2022/05/06 07:49:23;;;;;;;5.43;4.20;;;;;;;16.67;65.75;99234.31;5095707;28;20085;-59
2022/05/06 07:52:08;;;;;;;5.05;3.63;;;;;;;16.55;66.76;99237.06;5094966;28;20048;-59
2022/05/06 07:54:53;;;;;;;6.18;4.00;;;;;;;16.76;66.14;99241.47;5080095;28;20071;-58
2022/05/06 07:57:37;;;;;;;9.23;5.07;;;;;;;16.85;65.33;99239.81;5095796;28;20044;-60
2022/05/06 08:00:24;;;;;;;6.65;4.60;;;;;;;16.82;65.90;99243.59;5095711;28;20059;-60
2022/05/06 08:06:12;;;;;;;7.15;4.47;;;;;;;16.94;65.17;99244.31;5095526;28;20051;-60
2022/05/06 08:08:56;;;;;;;7.53;4.30;;;;;;;16.80;66.01;99245.53;5094253;28;20490;-60
2022/05/06 08:11:41;;;;;;;6.65;4.63;;;;;;;16.99;65.65;99238.59;5095256;28;20043;-60
2022/05/06 08:14:27;;;;;;;7.97;4.63;;;;;;;17.08;66.32;99237.84;5094079;28;20071;-60
2022/05/06 08:17:11;;;;;;;5.93;4.30;;;;;;;17.22;64.71;99233.09;5093993;28;20040;-60
2022/05/06 08:19:56;;;;;;;6.72;4.40;;;;;;;17.59;63.91;99229.78;5094881;28;20043;-61
2022/05/06 08:22:41;;;;;;;8.90;4.43;;;;;;;17.49;63.71;99231.63;5093927;28;20104;-60
2022/05/06 08:25:27;;;;;;;6.03;4.70;;;;;;;17.52;64.37;99234.00;5095656;28;20048;-59
2022/05/06 08:28:13;;;;;;;7.07;4.15;;;;;;;17.63;64.36;99232.19;5094695;28;20036;-59
2022/05/06 08:30:58;;;;;;;7.15;4.95;;;;;;;17.47;64.23;99239.69;5094263;28;20119;-59
2022/05/06 08:33:43;;;;;;;7.68;4.57;;;;;;;17.39;64.76;99238.72;5094316;28;20081;-61
2022/05/06 08:36:27;;;;;;;6.70;4.88;;;;;;;17.45;63.58;99232.84;5097179;28;20475;-59
2022/05/06 08:39:13;;;;;;;8.90;4.80;;;;;;;17.58;63.09;99232.56;5083845;28;20036;-61
2022/05/06 08:42:00;;;;;;;6.53;4.95;;;;;;;17.65;62.97;99227.56;5099539;28;20089;-62
2022/05/06 08:50:58;;;;;;;7.45;5.20;;;;;;;17.81;62.03;99245.53;5094479;28;20067;-60
2022/05/06 08:53:45;;;;;;;6.32;5.20;;;;;;;17.82;63.19;99256.00;5094446;28;20489;-61
2022/05/06 08:56:31;;;;;;;7.18;4.70;;;;;;;18.02;62.32;99255.97;5093114;28;20071;-61
2022/05/06 08:59:15;;;;;;;7.28;5.10;;;;;;;18.19;61.60;99265.06;5096091;28;20046;-60
2022/05/06 09:02:01;;;;;;;6.78;4.60;;;;;;;18.12;61.45;99266.59;5096713;28;20043;-62
2022/05/06 09:04:45;;;;;;;8.65;6.30;;;;;;;18.34;61.64;99264.63;5097517;28;20048;-61
2022/05/06 09:07:30;;;;;;;8.18;4.65;;;;;;;18.38;59.93;99267.81;5095576;28;20470;-62
2022/05/06 09:10:16;;;;;;;8.57;5.78;;;;;;;18.28;60.75;99262.53;5094313;28;20112;-58
2022/05/06 09:13:01;;;;;;;6.88;4.40;;;;;;;18.46;60.09;99258.16;5094081;28;20036;-61
2022/05/06 09:18:48;;;;;;;8.65;4.78;;;;;;;18.49;59.59;99266.81;5095158;28;20043;-59
2022/05/06 09:21:33;;;;;;;6.13;4.47;;;;;;;18.63;60.57;99261.03;5096936;28;20401;-60
2022/05/06 09:24:19;;;;;;;7.30;4.18;;;;;;;18.74;59.29;99253.84;5094949;28;20425;-60
2022/05/06 09:27:07;;;;;;;6.50;3.85;;;;;;;18.70;59.81;99254.13;5094079;28;20036;-61
2022/05/06 09:29:52;;;;;;;6.00;4.20;;;;;;;18.99;59.75;99257.66;5093822;28;20051;-62
2022/05/06 09:32:37;;;;;;;6.75;4.03;;;;;;;19.04;60.37;99252.75;5093109;28;20032;-61
2022/05/06 09:35:26;;;;;;;7.93;5.15;;;;;;;18.85;59.77;99266.94;5093133;28;20117;-63
2022/05/06 09:38:17;;;;;;;7.57;4.75;;;;;;;18.71;59.84;99258.47;5092797;28;20137;-62
2022/05/06 09:41:20;;;;;;;7.80;4.07;;;;;;;18.93;58.72;99256.41;5092993;28;20106;-60
2022/05/06 09:44:06;;;;;;;6.80;4.47;;;;;;;19.23;56.82;99260.75;5092946;28;20459;-61
2022/05/06 09:47:08;;;;;;;5.43;4.07;;;;;;;19.68;56.51;99264.34;5107835;28;20085;-60
2022/05/06 09:49:53;;;;;;;6.28;4.13;;;;;;;19.96;55.99;99263.41;5112992;28;20036;-62
2022/05/06 09:52:37;;;;;;;6.38;4.10;;;;;;;19.67;56.71;99255.53;5112501;28;20059;-59
2022/05/06 09:55:23;;;;;;;5.47;3.60;;;;;;;19.53;57.79;99254.28;5112394;28;20344;-61
2022/05/06 09:58:08;;;;;;;7.13;4.40;;;;;;;19.98;55.46;99259.59;5113588;28;20032;-60
2022/05/06 10:00:53;;;;;;;7.30;4.22;;;;;;;20.26;56.91;99262.16;5112544;28;20051;-62
2022/05/06 10:03:39;;;;;;;8.18;4.15;;;;;;;20.60;54.33;99271.16;5114033;28;20043;-59
2022/05/06 10:06:26;;;;;;;10.27;4.63;;;;;;;20.28;54.85;99262.84;5112644;28;20040;-59
2022/05/06 10:09:11;;;;;;;11.80;4.95;;;;;;;20.10;55.65;99262.88;5112344;28;20058;-60
2022/05/06 10:12:01;;;;;;;7.75;4.60;;;;;;;20.14;54.48;99260.75;5113227;28;20118;-61
2022/05/06 10:14:46;;;;;;;7.55;4.38;;;;;;;20.18;55.57;99252.31;5112951;28;20040;-63
2022/05/06 10:17:57;;;;;;;7.18;5.00;;;;;;;20.17;54.43;99263.91;5113440;28;20656;-63
2022/05/06 10:20:45;;;;;;;8.02;5.07;;;;;;;20.16;55.56;99262.25;5113185;28;20163;-61
2022/05/06 10:23:48;;;;;;;6.20;4.10;;;;;;;20.57;53.47;99266.16;5113751;28;20070;-60
2022/05/06 10:26:33;;;;;;;6.55;3.90;;;;;;;20.60;54.47;99265.84;5112047;28;20036;-61
2022/05/06 10:32:54;;;;;;;9.40;4.68;;;;;;;20.36;53.88;99253.25;5111493;28;20434;-59
2022/05/06 10:35:41;;;;;;;7.22;4.78;;;;;;;19.58;55.95;99253.81;5112634;28;20040;-59
2022/05/06 10:38:26;;;;;;;6.53;4.47;;;;;;;19.72;56.69;99247.09;5112784;28;20035;-61
2022/05/06 10:41:22;;;;;;;5.97;4.60;;;;;;;19.96;56.12;99255.44;5111893;28;20441;-62
2022/05/06 10:44:06;;;;;;;6.95;4.80;;;;;;;19.54;57.68;99263.06;5112822;28;20043;-61
2022/05/06 10:46:51;;;;;;;7.13;5.28;;;;;;;18.99;58.66;99255.00;5111952;28;20044;-60
2022/05/06 10:49:39;;;;;;;6.68;4.63;;;;;;;19.22;58.33;99253.78;5112599;28;20046;-62
2022/05/06 10:52:24;;;;;;;16.10;5.25;;;;;;;18.77;57.75;99259.69;5113120;28;20056;-60
2022/05/06 10:55:13;;;;;;;10.55;5.63;;;;;;;19.06;57.81;99257.91;5111283;28;20040;-60
2022/05/06 10:58:03;;;;;;;7.55;5.07;;;;;;;19.33;57.67;99262.38;5112730;28;20031;-60
2022/05/06 11:00:48;;;;;;;6.82;4.57;;;;;;;19.44;58.36;99257.81;5112335;28;20081;-60
2022/05/06 11:03:33;;;;;;;8.02;5.18;;;;;;;19.44;57.91;99257.81;5111135;28;20028;-61
2022/05/06 11:06:21;;;;;;;7.40;5.00;;;;;;;18.98;58.95;99257.81;5112358;28;20039;-63
2022/05/06 11:09:09;;;;;;;7.90;4.88;;;;;;;18.84;59.96;99262.59;5111691;28;20047;-62
2022/05/06 11:11:54;;;;;;;6.63;4.95;;;;;;;18.93;59.66;99256.41;5111189;28;20615;-60
2022/05/06 11:14:41;;;;;;;13.32;6.15;;;;;;;19.10;58.83;99250.47;5112149;28;20040;-60
2022/05/06 11:17:26;;;;;;;8.32;5.78;;;;;;;19.04;59.39;99254.56;5097483;28;20521;-61
2022/05/06 11:20:17;;;;;;;8.73;5.75;;;;;;;18.73;60.73;99258.34;5112424;28;20386;-62
2022/05/06 11:23:06;;;;;;;11.90;6.28;;;;;;;18.77;61.42;99266.84;5115916;28;20101;-61
2022/05/06 11:25:51;;;;;;;7.88;5.60;;;;;;;18.29;63.58;99269.50;5118327;28;20040;-60
2022/05/06 11:28:37;;;;;;;7.85;5.88;;;;;;;18.53;63.24;99279.63;5097599;28;20446;-62
2022/05/06 11:31:22;;;;;;;10.23;6.15;;;;;;;18.14;63.13;99285.03;5112254;28;20088;-60
2022/05/06 11:34:10;;;;;;;6.32;4.60;;;;;;;18.32;64.08;99293.09;5111775;28;20389;-61
2022/05/06 11:36:55;;;;;;;7.55;5.82;;;;;;;18.43;62.90;99286.75;5111686;28;20048;-62
2022/05/06 11:39:40;;;;;;;7.80;5.60;;;;;;;18.20;63.39;99287.94;5082175;28;20331;-63
2022/05/06 11:42:25;;;;;;;8.45;3.95;;;;;;;18.45;65.49;99277.72;5096873;28;20339;-67
2022/05/06 11:48:22;;;;;;;12.57;5.38;;;;;;;18.54;67.14;99259.25;5112080;28;20091;-59
2022/05/06 11:51:07;;;;;;;9.85;5.70;;;;;;;18.13;69.06;99252.38;5111721;28;20101;-59
2022/05/06 11:53:54;;;;;;;7.32;5.30;;;;;;;18.02;70.91;99245.38;5111721;28;20089;-60
2022/05/06 11:56:39;;;;;;;7.80;5.10;;;;;;;17.83;70.65;99240.94;5098641;28;20382;-61
2022/05/06 11:59:24;;;;;;;11.63;5.63;;;;;;;17.76;72.42;99243.31;5091570;28;20054;-61
2022/05/06 12:02:11;;;;;;;7.20;4.53;;;;;;;17.92;70.85;99239.28;5091699;28;20425;-60
2022/05/06 12:04:56;;;;;;;7.45;5.32;;;;;;;18.32;69.87;99238.25;5090048;28;20041;-60
2022/05/06 12:07:49;;;;;;;8.50;5.47;;;;;;;18.35;69.87;99242.41;5091182;28;20040;-62
2022/05/06 12:10:36;;;;;;;8.10;6.13;;;;;;;18.78;69.22;99237.50;5092906;28;20039;-61
2022/05/06 12:13:40;;;;;;;11.07;6.45;;;;;;;18.82;69.30;99240.69;5090820;28;20070;-62
2022/05/06 12:16:25;;;;;;;8.20;6.03;;;;;;;18.82;69.28;99240.69;5100157;28;20032;-62
2022/05/06 12:19:10;;;;;;;11.07;6.45;;;;;;;18.31;71.40;99236.56;5102258;28;20086;-62
2022/05/06 12:22:03;;;;;;;10.07;6.43;;;;;;;18.96;69.52;99228.75;5110682;28;20775;-63
2022/05/06 12:24:50;;;;;;;9.80;6.53;;;;;;;19.26;68.58;99225.94;5086946;28;20044;-65
2022/05/06 12:27:36;;;;;;;9.32;6.38;;;;;;;18.77;70.93;99230.50;5115481;28;20047;-61
2022/05/06 12:30:23;;;;;;;7.72;6.05;;;;;;;18.60;71.42;99237.44;5114447;28;20043;-61
2022/05/06 12:33:12;;;;;;;8.45;6.40;;;;;;;18.67;70.42;99241.16;5114344;28;20047;-62
2022/05/06 12:36:05;;;;;;;11.45;7.07;;;;;;;18.62;70.54;99238.16;5114256;28;20112;-61
2022/05/06 12:38:51;;;;;;;10.07;6.22;;;;;;;19.06;69.36;99236.66;5099824;28;20070;-61
2022/05/06 12:41:36;;;;;;;10.15;6.03;;;;;;;19.24;68.23;99238.53;5114809;28;20074;-64
2022/05/06 12:44:24;;;;;;;9.75;6.60;;;;;;;19.17;68.03;99238.28;5116013;28;20065;-60
2022/05/06 12:47:14;;;;;;;10.63;6.28;;;;;;;18.88;69.97;99236.63;5115819;28;20431;-62
2022/05/06 12:49:58;;;;;;;12.48;6.50;;;;;;;19.41;68.42;99239.53;5114245;28;20043;-61
2022/05/06 12:52:43;;;;;;;12.05;7.28;;;;;;;19.27;67.61;99238.22;5113967;28;20460;-60
2022/05/06 12:55:29;;;;;;;15.68;9.18;;;;;;;19.18;67.83;99240.81;5099505;28;20386;-60
2022/05/06 12:58:14;;;;;;;8.23;5.68;;;;;;;19.32;67.84;99238.63;5112290;28;20078;-62
2022/05/06 13:01:00;;;;;;;8.93;5.88;;;;;;;19.76;65.84;99227.22;5079007;28;20051;-60
2022/05/06 13:03:45;;;;;;;9.35;6.00;;;;;;;19.85;64.25;99229.91;5107742;28;20135;-60
2022/05/06 13:06:34;;;;;;;11.77;7.35;;;;;;;20.02;63.02;99231.75;5094123;28;20036;-60
2022/05/06 13:09:20;;;;;;;9.85;6.38;;;;;;;20.22;61.08;99231.53;5092760;28;20051;-69
2022/05/06 13:12:05;;;;;;;8.98;6.80;;;;;;;20.18;62.15;99240.84;5093229;28;20063;-58
2022/05/06 13:14:50;;;;;;;9.60;7.03;;;;;;;20.03;62.76;99236.09;5093979;28;20043;-65
2022/05/06 13:17:34;;;;;;;10.90;6.95;;;;;;;19.99;63.16;99224.06;5093072;28;20525;-59
2022/05/06 13:20:20;;;;;;;9.35;5.95;;;;;;;19.95;63.55;99233.34;5093050;28;20377;-60
2022/05/06 13:23:04;;;;;;;9.30;6.97;;;;;;;20.12;63.29;99237.00;5093426;28;20040;-62
2022/05/06 13:25:50;;;;;;;11.93;7.22;;;;;;;19.88;63.44;99232.31;5094362;28;20088;-61
2022/05/06 13:28:35;;;;;;;13.02;7.40;;;;;;;20.34;62.18;99228.63;5093398;28;20032;-60
2022/05/06 13:31:22;;;;;;;12.18;7.57;;;;;;;20.17;62.77;99226.69;5092028;28;20063;-61
2022/05/06 13:34:07;;;;;;;9.05;6.80;;;;;;;19.91;63.60;99227.47;5106615;28;20442;-61
2022/05/06 13:36:51;;;;;;;8.55;6.50;;;;;;;19.65;65.25;99222.97;5093360;28;20105;-63
2022/05/06 13:39:36;;;;;;;9.18;6.88;;;;;;;19.92;64.82;99226.50;5093686;28;20060;-62
2022/05/06 13:42:20;;;;;;;9.65;6.53;;;;;;;19.73;63.09;99216.88;5100520;28;20040;-61
2022/05/06 13:45:05;;;;;;;12.32;7.85;;;;;;;19.63;63.56;99217.00;5091925;28;20036;-59